Terminal Aerodrome Forecast
Issued by NWS Des Moines, IA

Home | Current Version | Previous Version | Text Only | Print | Product List | Glossary On
Versions: 1 2 3 4 5 6 7 8 9 10 11 12 13 14 15 16 17 18 19 20 21 22 23 24 25 26 27 28 29 30 31 32 33 34 35 36
000
FTUS43 KDMX 211131
TAFALO
TAF
KALO 211131Z 2112/2212 VRB03KT 1/4SM FG VV002
     FM211500 VRB03KT 1 1/2SM BR SCT002
     FM211600 23004KT 4SM BR SCT120
     FM211700 21009KT P6SM SCT120
     FM220300 20008KT P6SM SKC WS020/24035KT
     FM220400 21008KT P6SM SKC=

USA.gov is the U.S. government's official web portal to all federal, state and local government web resources and services.